createdAt,value
2023-11-14T00:00:59.835Z,4.11
2023-11-14T00:01:59.844Z,4.22
2023-11-14T00:02:59.868Z,3.78
2023-11-14T00:03:59.851Z,3.67
2023-11-14T00:05:59.843Z,3.67
2023-11-14T00:06:59.826Z,3.67
2023-11-14T00:07:59.856Z,3.67
2023-11-14T00:08:59.837Z,3.39
2023-11-14T00:09:59.832Z,3.56
2023-11-14T00:10:59.875Z,3.56
2023-11-14T00:12:59.839Z,3.67
2023-11-14T00:14:59.884Z,3.11
2023-11-14T00:15:59.921Z,3.56
2023-11-14T00:16:59.894Z,3.39
2023-11-14T00:17:59.965Z,3.67
2023-11-14T00:18:59.869Z,3.56
2023-11-14T00:19:59.952Z,3.56
2023-11-14T00:20:59.846Z,3.56
2023-11-14T00:21:59.849Z,3.56
2023-11-14T00:23:59.864Z,3.78
2023-11-14T00:25:59.870Z,3.56
2023-11-14T00:26:59.856Z,3.28
2023-11-14T00:27:59.864Z,3.56
2023-11-14T00:28:59.899Z,3.39
2023-11-14T00:30:59.887Z,4.11
2023-11-14T00:32:59.888Z,3.67
2023-11-14T00:34:59.900Z,3.39
2023-11-14T00:35:59.861Z,3.56
2023-11-14T00:37:59.880Z,3.56
2023-11-14T00:39:59.869Z,3.28
2023-11-14T00:40:59.875Z,3.56
2023-11-14T00:42:59.853Z,3.67
2023-11-14T00:43:59.891Z,3.56
2023-11-14T00:44:59.853Z,3.56
2023-11-14T00:45:59.863Z,3.78
2023-11-14T00:46:59.979Z,3.39
2023-11-14T00:47:59.901Z,3.94
2023-11-14T00:48:59.885Z,3.94
2023-11-14T00:50:59.867Z,3.39
2023-11-14T00:51:59.881Z,3.78
2023-11-14T00:52:59.865Z,3.78
2023-11-14T00:53:59.870Z,3.94
2023-11-14T00:54:59.866Z,3.56
2023-11-14T00:55:59.883Z,3.78
2023-11-14T00:57:59.866Z,3.56
2023-11-14T00:58:59.873Z,3.67
2023-11-14T00:59:59.861Z,3.67
2023-11-14T01:00:59.939Z,3.78
2023-11-14T01:02:00.146Z,3.67
2023-11-14T01:03:00.012Z,3.67
2023-11-14T01:04:59.907Z,3.67
2023-11-14T01:05:59.876Z,3.94
2023-11-14T01:06:59.877Z,3.67
2023-11-14T01:07:59.969Z,3.67
2023-11-14T01:08:59.875Z,3.56
2023-11-14T01:09:59.887Z,3.67
2023-11-14T01:10:59.896Z,3.78
2023-11-14T01:11:59.878Z,3.56
2023-11-14T01:12:59.908Z,3.78
2023-11-14T01:13:59.910Z,3.78
2023-11-14T01:14:59.878Z,3.94
2023-11-14T01:15:59.885Z,4.11
2023-11-14T01:16:59.938Z,3.67
2023-11-14T01:17:59.908Z,3.11
2023-11-14T01:18:59.930Z,3.39
2023-11-14T01:19:59.924Z,3.39
2023-11-14T01:20:59.876Z,3.39
2023-11-14T01:21:59.893Z,3.28
2023-11-14T01:22:59.982Z,3.39
2023-11-14T01:23:59.915Z,3.28
2023-11-14T01:25:59.948Z,3.28
2023-11-14T01:26:59.865Z,3.28
2023-11-14T01:27:59.878Z,3.39
2023-11-14T01:28:59.934Z,3.11
2023-11-14T01:29:59.885Z,3.11
2023-11-14T01:30:59.875Z,3.56
2023-11-14T01:31:59.916Z,3.56
2023-11-14T01:32:59.931Z,3.56
2023-11-14T01:33:59.935Z,3.67
2023-11-14T01:34:59.983Z,3.56
2023-11-14T01:36:59.890Z,4.11
2023-11-14T01:37:59.928Z,4.11
2023-11-14T01:38:59.878Z,3.67
2023-11-14T01:39:59.883Z,3.78
2023-11-14T01:41:59.883Z,3.94
2023-11-14T01:42:59.887Z,3.78
2023-11-14T01:43:59.948Z,4.11
2023-11-14T01:44:59.901Z,4.11
2023-11-14T01:45:59.874Z,3.67
2023-11-14T01:46:59.958Z,4.11
2023-11-14T01:47:59.915Z,4.22
2023-11-14T01:48:59.898Z,4.11
2023-11-14T01:50:59.910Z,4.11
2023-11-14T01:51:59.883Z,4.11
2023-11-14T01:52:59.979Z,3.94
2023-11-14T01:54:59.885Z,3.94
2023-11-14T01:56:59.892Z,3.78
2023-11-14T01:57:59.879Z,4.11
2023-11-14T01:58:59.914Z,4.22
2023-11-14T01:59:59.880Z,4.22
2023-11-14T02:00:59.953Z,4.5
2023-11-14T02:02:00.014Z,4.11
2023-11-14T02:03:59.892Z,3.94
2023-11-14T02:04:59.894Z,4.22
2023-11-14T02:05:59.900Z,4.39
2023-11-14T02:06:59.908Z,4.39
2023-11-14T02:07:59.945Z,4.22
2023-11-14T02:08:59.891Z,4.22
2023-11-14T02:09:59.894Z,3.94
2023-11-14T02:10:59.962Z,4.22
2023-11-14T02:11:59.882Z,4.22
2023-11-14T02:12:59.893Z,4.22
2023-11-14T02:13:59.905Z,3.94
2023-11-14T02:14:59.884Z,4.39
2023-11-14T02:15:59.926Z,4.5
2023-11-14T02:16:59.946Z,4.22
2023-11-14T02:17:59.929Z,4.5
2023-11-14T02:18:59.933Z,4.39
2023-11-14T02:20:59.901Z,4.39
2023-11-14T02:21:59.901Z,4.11
2023-11-14T02:22:59.969Z,4.22
2023-11-14T02:23:59.902Z,3.94
2023-11-14T02:24:59.934Z,3.94
2023-11-14T02:25:59.902Z,3.94
2023-11-14T02:26:59.891Z,3.94
2023-11-14T02:27:59.902Z,3.78
2023-11-14T02:28:59.975Z,3.94
2023-11-14T02:31:00.037Z,3.78
2023-11-14T02:31:59.924Z,4.22
2023-11-14T02:32:59.949Z,4.11
2023-11-14T02:33:59.892Z,4.39
2023-11-14T02:34:59.944Z,3.78
2023-11-14T02:36:59.906Z,3.94
2023-11-14T02:37:59.972Z,4.11
2023-11-14T02:38:59.935Z,4.11
2023-11-14T02:40:59.974Z,4.5
2023-11-14T02:41:59.907Z,3.94
2023-11-14T02:42:59.896Z,4.11
2023-11-14T02:43:59.922Z,4.11
2023-11-14T02:44:59.918Z,4.11
2023-11-14T02:46:59.996Z,4.22
2023-11-14T02:47:59.925Z,4.11
2023-11-14T02:48:59.910Z,4.22
2023-11-14T02:50:00.034Z,4.39
2023-11-14T02:51:59.909Z,4.39
2023-11-14T02:52:59.918Z,4.39
2023-11-14T02:53:59.905Z,4.39
2023-11-14T02:54:59.992Z,4.22
2023-11-14T02:56:59.924Z,4.22
2023-11-14T02:57:59.920Z,3.94
2023-11-14T02:58:59.941Z,4.22
2023-11-14T02:59:59.917Z,4.11
2023-11-14T03:00:59.966Z,4.39
2023-11-14T03:02:00.060Z,4.11
2023-11-14T03:02:59.930Z,4.39
2023-11-14T03:03:59.943Z,4.39
2023-11-14T03:04:59.950Z,4.39
2023-11-14T03:05:59.920Z,3.94
2023-11-14T03:06:59.934Z,4.22
2023-11-14T03:07:59.963Z,4.22
2023-11-14T03:08:59.928Z,4.5
2023-11-14T03:09:59.927Z,4.39
2023-11-14T03:10:59.992Z,4.11
2023-11-14T03:11:59.931Z,4.11
2023-11-14T03:12:59.954Z,4.39
2023-11-14T03:13:59.946Z,4.11
2023-11-14T03:14:59.929Z,4.22
2023-11-14T03:16:00.077Z,4.39
2023-11-14T03:17:59.968Z,4.22
2023-11-14T03:18:59.944Z,4.39
2023-11-14T03:20:59.950Z,4.5
2023-11-14T03:21:59.949Z,4.22
2023-11-14T03:23:00.006Z,4.22
2023-11-14T03:23:59.954Z,4.39
2023-11-14T03:24:59.948Z,3.94
2023-11-14T03:25:59.989Z,4.39
2023-11-14T03:26:59.987Z,4.22
2023-11-14T03:29:00.011Z,4.5
2023-11-14T03:30:59.969Z,4.5
2023-11-14T03:32:00.065Z,4.5
2023-11-14T03:33:00.088Z,4.5
2023-11-14T03:33:59.976Z,4.5
2023-11-14T03:35:59.972Z,4.67
2023-11-14T03:36:59.958Z,4.39
2023-11-14T03:37:59.981Z,4.5
2023-11-14T03:39:59.968Z,4.39
2023-11-14T03:40:59.986Z,4.22
2023-11-14T03:41:59.971Z,4.39
2023-11-14T03:43:00.001Z,4.11
2023-11-14T03:43:59.986Z,4.22
2023-11-14T03:44:59.994Z,4.67
2023-11-14T03:45:59.996Z,4.5
2023-11-14T03:47:00.017Z,4.5
2023-11-14T03:48:00.004Z,4.5
2023-11-14T03:48:59.980Z,4.5
2023-11-14T03:49:59.989Z,4.5
2023-11-14T03:50:59.991Z,4.67
2023-11-14T03:51:59.986Z,4.39
2023-11-14T03:53:59.992Z,4.39
2023-11-14T03:54:59.997Z,4.5
2023-11-14T03:56:00.081Z,4.67
2023-11-14T03:58:00.003Z,4.5
2023-11-14T03:59:00.093Z,4.39
2023-11-14T03:59:59.983Z,4.5
2023-11-14T04:00:59.989Z,4.5
2023-11-14T04:03:00.034Z,4.5
2023-11-14T04:05:00.038Z,4.5
2023-11-14T04:06:00.012Z,4.39
2023-11-14T04:08:00.045Z,4.5
2023-11-14T04:09:59.992Z,4.5
2023-11-14T04:11:00.082Z,4.5
2023-11-14T04:12:00.007Z,4.5
2023-11-14T04:13:00.014Z,4.5
2023-11-14T04:14:00.065Z,4.67
2023-11-14T04:15:00.037Z,4.5
2023-11-14T04:16:00.004Z,4.67
2023-11-14T04:17:00.074Z,4.67
2023-11-14T04:18:00.101Z,4.5
2023-11-14T04:19:00.025Z,4.83
2023-11-14T04:20:00.059Z,4.5
2023-11-14T04:21:00.042Z,4.39
2023-11-14T04:22:00.010Z,4.83
2023-11-14T04:23:00.030Z,4.5
2023-11-14T04:24:00.043Z,4.83
2023-11-14T04:25:00.024Z,4.5
2023-11-14T04:26:00.071Z,4.83
2023-11-14T04:27:00.072Z,4.67
2023-11-14T04:29:00.060Z,4.67
2023-11-14T04:30:00.062Z,4.39
2023-11-14T04:31:00.058Z,4.67
2023-11-14T04:32:00.075Z,4.67
2023-11-14T04:33:00.181Z,4.67
2023-11-14T04:34:00.070Z,4.83
2023-11-14T04:36:00.054Z,4.39
2023-11-14T04:37:00.050Z,4.83
2023-11-14T04:39:00.056Z,4.39
2023-11-14T04:40:00.100Z,4.67
2023-11-14T04:42:00.117Z,4.67
2023-11-14T04:44:00.138Z,4.5
2023-11-14T04:45:00.101Z,4.39
2023-11-14T04:46:00.169Z,4.11
2023-11-14T04:47:00.195Z,4.5
2023-11-14T04:48:00.051Z,4.39
2023-11-14T04:49:00.054Z,4.5
2023-11-14T04:50:00.100Z,4.5
2023-11-14T04:52:00.055Z,4.22
2023-11-14T04:54:00.060Z,4.67
2023-11-14T04:56:00.131Z,4.67
2023-11-14T04:57:00.067Z,4.5
2023-11-14T04:59:00.072Z,4.67
2023-11-14T05:01:00.089Z,4.39
2023-11-14T05:02:00.098Z,4.5
2023-11-14T05:03:00.195Z,4.5
2023-11-14T05:04:00.123Z,4.5
2023-11-14T05:05:00.159Z,4.83
2023-11-14T05:06:00.058Z,4.5
2023-11-14T05:07:00.071Z,4.67
2023-11-14T05:09:00.079Z,4.83
2023-11-14T05:10:00.068Z,4.83
2023-11-14T05:12:00.069Z,4.39
2023-11-14T05:13:00.058Z,4.22
2023-11-14T05:14:00.143Z,4.5
2023-11-14T05:15:00.065Z,4.67
2023-11-14T05:16:04.801Z,4.5
2023-11-14T05:17:00.097Z,4.83
2023-11-14T05:18:00.264Z,4.39
2023-11-14T05:19:00.115Z,4.67
2023-11-14T05:21:00.069Z,4.5
2023-11-14T05:23:00.242Z,4.5
2023-11-14T05:25:00.109Z,4.39
2023-11-14T05:26:00.163Z,4.67
2023-11-14T05:27:00.066Z,4.22
2023-11-14T05:28:00.088Z,4.39
2023-11-14T05:29:00.090Z,4.83
2023-11-14T05:30:00.101Z,4.94
2023-11-14T05:32:00.147Z,4.83
2023-11-14T05:34:00.098Z,4.67
2023-11-14T05:35:00.226Z,4.11
2023-11-14T05:37:00.092Z,4.5
2023-11-14T05:39:00.082Z,4.94
2023-11-14T05:40:00.180Z,4.67
2023-11-14T05:41:00.090Z,4.83
2023-11-14T05:42:00.085Z,4.83
2023-11-14T05:43:00.093Z,4.83
2023-11-14T05:44:00.116Z,4.5
2023-11-14T05:45:00.134Z,4.22
2023-11-14T05:46:00.191Z,4.5
2023-11-14T05:47:00.108Z,4.39
2023-11-14T05:48:00.129Z,4.67
2023-11-14T05:50:00.120Z,4.5
2023-11-14T05:51:00.132Z,4.83
2023-11-14T05:52:00.083Z,4.5
2023-11-14T05:53:00.127Z,4.5
2023-11-14T05:54:00.092Z,4.22
2023-11-14T05:56:00.139Z,4.39
2023-11-14T05:58:00.143Z,4.83
2023-11-14T05:59:00.132Z,4.83
2023-11-14T06:00:00.121Z,4.5
2023-11-14T06:01:00.096Z,4.67
2023-11-14T06:02:00.313Z,4.83
2023-11-14T06:03:00.190Z,4.67
2023-11-14T06:04:00.218Z,4.83
2023-11-14T06:05:00.161Z,4.83
2023-11-14T06:06:00.081Z,4.67
2023-11-14T06:07:00.119Z,4.67
2023-11-14T06:08:00.100Z,4.83
2023-11-14T06:09:00.100Z,4.39
2023-11-14T06:10:00.133Z,4.67
2023-11-14T06:12:00.093Z,4.83
2023-11-14T06:13:00.114Z,4.67
2023-11-14T06:15:00.129Z,4.67
2023-11-14T06:16:00.212Z,4.83
2023-11-14T06:17:00.171Z,4.67
2023-11-14T06:18:00.090Z,4.83
2023-11-14T06:19:00.109Z,4.39
2023-11-14T06:20:00.172Z,4.5
2023-11-14T06:21:00.088Z,4.67
2023-11-14T06:22:00.141Z,4.67
2023-11-14T06:23:00.571Z,4.5
2023-11-14T06:24:00.089Z,4.83
2023-11-14T06:25:00.164Z,4.83
2023-11-14T06:26:00.125Z,4.39
2023-11-14T06:27:00.104Z,4.67
2023-11-14T06:28:00.098Z,4.67
2023-11-14T06:29:00.124Z,4.39
2023-11-14T06:30:00.099Z,4.67
2023-11-14T06:31:00.107Z,4.67
2023-11-14T06:32:00.187Z,4.67
2023-11-14T06:33:00.134Z,4.39
2023-11-14T06:34:00.156Z,4.67
2023-11-14T06:35:00.127Z,4.94
2023-11-14T06:36:00.132Z,4.67
2023-11-14T06:38:00.112Z,4.67
2023-11-14T06:39:00.142Z,4.94
2023-11-14T06:40:00.150Z,4.94
2023-11-14T06:42:00.092Z,4.67
2023-11-14T06:43:00.099Z,4.5
2023-11-14T06:44:00.188Z,4.67
2023-11-14T06:45:00.195Z,4.83
2023-11-14T06:46:00.153Z,4.94
2023-11-14T06:48:00.181Z,5.11
2023-11-14T06:49:00.103Z,4.94
2023-11-14T06:50:00.197Z,4.94
2023-11-14T06:52:00.129Z,5.11
2023-11-14T06:54:00.114Z,5.11
2023-11-14T06:55:00.193Z,5.22
2023-11-14T06:57:00.095Z,5.39
2023-11-14T06:58:00.108Z,5.22
2023-11-14T06:59:00.179Z,5.11
2023-11-14T07:00:00.140Z,5.11
2023-11-14T07:02:00.232Z,5.11
2023-11-14T07:03:00.245Z,5.22
2023-11-14T07:05:00.246Z,5.11
2023-11-14T07:06:00.109Z,5.22
2023-11-14T07:07:00.094Z,4.94
2023-11-14T07:08:00.122Z,5.22
2023-11-14T07:09:00.122Z,5.11
2023-11-14T07:10:00.122Z,5.39
2023-11-14T07:11:00.189Z,5.39
2023-11-14T07:12:00.113Z,5.22
2023-11-14T07:13:00.107Z,4.94
2023-11-14T07:14:00.159Z,5.56
2023-11-14T07:15:00.158Z,5.11
2023-11-14T07:16:00.166Z,5.39
2023-11-14T07:17:00.214Z,5.39
2023-11-14T07:19:00.111Z,5.11
2023-11-14T07:21:00.191Z,5.56
2023-11-14T07:22:00.112Z,5.39
2023-11-14T07:23:00.128Z,5.11
2023-11-14T07:24:00.130Z,5.39
2023-11-14T07:26:00.184Z,5.11
2023-11-14T07:27:00.181Z,5.11
2023-11-14T07:29:00.135Z,5.11
2023-11-14T07:30:00.127Z,5.22
2023-11-14T07:32:00.126Z,4.83
2023-11-14T07:34:00.123Z,5.11
2023-11-14T07:35:00.163Z,5.11
2023-11-14T07:36:00.138Z,5.22
2023-11-14T07:38:00.150Z,4.94
2023-11-14T07:40:00.139Z,5.22
2023-11-14T07:42:00.100Z,5.22
2023-11-14T07:43:00.147Z,5.22
2023-11-14T07:45:00.140Z,5.39
2023-11-14T07:46:00.145Z,5.39
2023-11-14T07:47:07.588Z,5.11
2023-11-14T07:48:00.345Z,5.39
2023-11-14T07:49:00.107Z,5.39
2023-11-14T07:50:00.149Z,5.56
2023-11-14T07:51:00.109Z,5.39
2023-11-14T07:52:00.121Z,5.56
2023-11-14T07:53:00.157Z,5.39
2023-11-14T07:54:00.125Z,5.39
2023-11-14T07:55:00.162Z,5.39
2023-11-14T07:57:00.129Z,5.67
2023-11-14T07:59:00.146Z,5.67
2023-11-14T08:00:00.192Z,5.67
2023-11-14T08:01:00.117Z,5.78
2023-11-14T08:02:00.175Z,5.56
2023-11-14T08:03:00.284Z,5.56
2023-11-14T08:04:00.271Z,5.22
2023-11-14T08:05:00.272Z,5.67
2023-11-14T08:06:00.136Z,5.78
2023-11-14T08:07:00.161Z,5.67
2023-11-14T08:08:00.153Z,5.78
2023-11-14T08:09:00.136Z,5.78
2023-11-14T08:10:00.200Z,5.94
2023-11-14T08:11:00.162Z,5.94
2023-11-14T08:12:00.137Z,5.94
2023-11-14T08:15:00.287Z,6.06
2023-11-14T08:17:00.332Z,5.94
2023-11-14T08:18:00.177Z,6.22
2023-11-14T08:19:00.136Z,6.22
2023-11-14T08:20:00.240Z,5.94
2023-11-14T08:21:00.167Z,5.94
2023-11-14T08:22:00.151Z,6.06
2023-11-14T08:23:00.232Z,6.06
2023-11-14T08:25:00.262Z,6.22
2023-11-14T08:26:00.244Z,5.94
2023-11-14T08:27:00.178Z,6.22
2023-11-14T08:28:00.148Z,5.78
2023-11-14T08:29:00.193Z,5.56
2023-11-14T08:30:00.252Z,5.94
2023-11-14T08:31:00.215Z,6.06
2023-11-14T08:32:00.183Z,6.22
2023-11-14T08:33:00.178Z,6.5
2023-11-14T08:34:00.235Z,6.39
2023-11-14T08:35:00.252Z,6.22
2023-11-14T08:36:00.265Z,6.39
2023-11-14T08:37:00.198Z,6.06
2023-11-14T08:39:00.196Z,6.22
2023-11-14T08:40:00.190Z,5.67
2023-11-14T08:41:00.209Z,5.78
2023-11-14T08:42:00.258Z,5.94
2023-11-14T08:43:00.435Z,5.67
2023-11-14T08:44:00.261Z,5.94
2023-11-14T08:45:00.243Z,6.06
2023-11-14T08:46:00.219Z,6.06
2023-11-14T08:47:00.277Z,5.67
2023-11-14T08:48:00.237Z,5.94
2023-11-14T08:49:00.184Z,5.78
2023-11-14T08:50:00.318Z,5.78
2023-11-14T08:51:00.230Z,6.06
2023-11-14T08:52:00.230Z,5.56
2023-11-14T08:54:00.248Z,5.67
2023-11-14T08:55:00.193Z,5.78
2023-11-14T08:56:00.281Z,5.56
2023-11-14T08:57:00.216Z,6.06
2023-11-14T08:58:00.184Z,5.78
2023-11-14T08:59:00.195Z,5.78
2023-11-14T09:00:00.186Z,5.78
2023-11-14T09:01:00.273Z,5.78
2023-11-14T09:02:00.255Z,5.56
2023-11-14T09:03:00.336Z,5.39
2023-11-14T09:05:00.295Z,5.67
2023-11-14T09:07:00.190Z,5.94
2023-11-14T09:08:00.250Z,6.06
2023-11-14T09:10:00.303Z,5.78
2023-11-14T09:11:00.479Z,6.06
2023-11-14T09:12:00.202Z,5.94
2023-11-14T09:14:00.264Z,5.78
2023-11-14T09:15:00.284Z,6.22
2023-11-14T09:16:00.251Z,6.06
2023-11-14T09:17:00.304Z,6.22
2023-11-14T09:18:00.417Z,6.22
2023-11-14T09:19:00.326Z,6.06
2023-11-14T09:21:00.186Z,6.22
2023-11-14T09:22:00.189Z,6.22
2023-11-14T09:23:01.189Z,6.06
2023-11-14T09:24:00.181Z,6.22
2023-11-14T09:25:00.192Z,5.94
2023-11-14T09:26:00.201Z,6.06
2023-11-14T09:27:00.220Z,6.39
2023-11-14T09:28:00.911Z,6.22
2023-11-14T09:29:00.253Z,6.22
2023-11-14T09:30:00.246Z,5.94
2023-11-14T09:32:00.267Z,6.5
2023-11-14T09:33:00.198Z,6.39
2023-11-14T09:34:00.237Z,6.22
2023-11-14T09:35:00.365Z,6.5
2023-11-14T09:37:00.248Z,6.39
2023-11-14T09:39:00.209Z,6.39
2023-11-14T09:40:00.283Z,6.67
2023-11-14T09:41:00.226Z,6.5
2023-11-14T09:42:00.324Z,6.67
2023-11-14T09:43:00.202Z,6.5
2023-11-14T09:45:00.214Z,6.67
2023-11-14T09:46:00.565Z,6.94
2023-11-14T09:47:00.294Z,6.94
2023-11-14T09:49:00.266Z,6.78
2023-11-14T09:50:00.321Z,6.78
2023-11-14T09:51:00.294Z,7.11
2023-11-14T09:53:00.274Z,7.11
2023-11-14T09:54:00.245Z,7.22
2023-11-14T09:56:00.260Z,7.22
2023-11-14T09:58:00.212Z,6.94
2023-11-14T09:59:00.239Z,7.39
2023-11-14T10:00:00.315Z,7.5
2023-11-14T10:02:00.328Z,7.67
2023-11-14T10:03:00.371Z,7.22
2023-11-14T10:04:00.371Z,7.94
2023-11-14T10:05:03.541Z,7.78
2023-11-14T10:06:00.217Z,7.5
2023-11-14T10:07:00.221Z,7.67
2023-11-14T10:09:01.361Z,7.67
2023-11-14T10:11:00.235Z,7.39
2023-11-14T10:12:11.750Z,7.94
2023-11-14T10:13:00.236Z,8.28
2023-11-14T10:15:00.245Z,7.94
2023-11-14T10:16:00.240Z,7.94
2023-11-14T10:17:00.395Z,7.67
2023-11-14T10:18:00.277Z,7.78
2023-11-14T10:19:00.240Z,7.67
2023-11-14T10:20:00.777Z,7.5
2023-11-14T10:21:00.304Z,7.78
2023-11-14T10:22:00.269Z,7.67
2023-11-14T10:23:04.201Z,7.94
2023-11-14T10:24:00.306Z,7.94
2023-11-14T10:25:00.177Z,8.11
2023-11-14T10:26:00.261Z,8.11
2023-11-14T10:27:00.242Z,8.11
2023-11-14T10:28:00.217Z,7.94
2023-11-14T10:29:00.281Z,7.94
2023-11-14T10:31:14.238Z,7.78
2023-11-14T10:32:00.442Z,7.94
2023-11-14T10:33:00.284Z,7.94
2023-11-14T10:34:00.252Z,7.94
2023-11-14T10:36:00.251Z,8.39
2023-11-14T10:37:00.219Z,8.11
2023-11-14T10:38:00.242Z,8.11
2023-11-14T10:39:00.229Z,8.28
2023-11-14T10:40:00.267Z,8.39
2023-11-14T10:41:00.243Z,8.39
2023-11-14T10:42:00.184Z,8.5
2023-11-14T10:44:00.222Z,7.94
2023-11-14T10:45:00.288Z,8.11
2023-11-14T10:46:00.359Z,8.39
2023-11-14T10:47:00.352Z,8.5
2023-11-14T10:49:00.216Z,8.28
2023-11-14T10:50:00.303Z,8.28
2023-11-14T10:51:00.199Z,8.39
2023-11-14T10:52:00.202Z,8.39
2023-11-14T10:53:00.329Z,8.11
2023-11-14T10:54:00.322Z,8.28
2023-11-14T10:55:00.278Z,8.39
2023-11-14T10:57:03.391Z,8.28
2023-11-14T10:58:00.205Z,8.11
2023-11-14T10:59:00.263Z,7.94
2023-11-14T11:00:00.283Z,8.28
2023-11-14T11:02:00.269Z,7.78
2023-11-14T11:03:00.275Z,7.78
2023-11-14T11:04:00.259Z,7.94
2023-11-14T11:06:00.230Z,8.11
2023-11-14T11:07:00.214Z,7.78
2023-11-14T11:08:00.400Z,8.28
2023-11-14T11:09:00.201Z,8.28
2023-11-14T11:11:00.331Z,8.11
2023-11-14T11:13:00.240Z,7.94
2023-11-14T11:15:00.226Z,8.39
2023-11-14T11:16:00.244Z,8.5
2023-11-14T11:17:00.275Z,8.39
2023-11-14T11:18:00.240Z,8.39
2023-11-14T11:19:00.196Z,8.5
2023-11-14T11:21:00.222Z,8.5
2023-11-14T11:22:00.264Z,8.28
2023-11-14T11:23:00.258Z,8.5
2023-11-14T11:24:00.278Z,8.11
2023-11-14T11:26:00.264Z,8.28
2023-11-14T11:27:00.284Z,8.61
2023-11-14T11:28:00.232Z,8.39
2023-11-14T11:29:00.278Z,8.5
2023-11-14T11:30:00.299Z,8.5
2023-11-14T11:31:00.255Z,8.28
2023-11-14T11:33:00.328Z,8.11
2023-11-14T11:34:00.188Z,8.28
2023-11-14T11:35:00.333Z,8.28
2023-11-14T11:36:00.195Z,8.28
2023-11-14T11:37:00.203Z,7.94
2023-11-14T11:38:00.283Z,8.11
2023-11-14T11:40:00.213Z,8.39
2023-11-14T11:41:00.244Z,8.11
2023-11-14T11:42:00.214Z,8.28
2023-11-14T11:43:00.431Z,8.39
2023-11-14T11:45:00.251Z,8.39
2023-11-14T11:46:00.265Z,8.39
2023-11-14T11:47:00.365Z,7.94
2023-11-14T11:48:00.485Z,8.5
2023-11-14T11:50:00.331Z,8.39
2023-11-14T11:51:00.244Z,8.39
2023-11-14T11:52:00.247Z,7.94
2023-11-14T11:53:00.277Z,8.28
2023-11-14T11:55:00.223Z,7.78
2023-11-14T11:56:00.242Z,7.94
2023-11-14T11:57:00.209Z,8.28
2023-11-14T11:58:00.299Z,8.11
2023-11-14T11:59:00.387Z,8.28
2023-11-14T12:00:00.282Z,8.11
2023-11-14T12:01:00.235Z,8.28
2023-11-14T12:02:00.292Z,7.67
2023-11-14T12:04:00.427Z,7.94
2023-11-14T12:05:00.967Z,7.94
2023-11-14T12:06:00.926Z,7.67
2023-11-14T12:07:00.212Z,7.78
2023-11-14T12:08:00.265Z,7.94
2023-11-14T12:09:00.223Z,7.94
2023-11-14T12:10:00.228Z,7.94
2023-11-14T12:11:00.254Z,7.78
2023-11-14T12:12:00.228Z,8.11
2023-11-14T12:14:00.267Z,8.11
2023-11-14T12:15:00.273Z,8.11
2023-11-14T12:16:00.231Z,7.78
2023-11-14T12:17:00.396Z,7.5
2023-11-14T12:19:00.245Z,7.94
2023-11-14T12:20:00.448Z,8.11
2023-11-14T12:21:00.227Z,7.94
2023-11-14T12:23:00.281Z,7.94
2023-11-14T12:24:00.223Z,7.78
2023-11-14T12:26:00.295Z,7.94
2023-11-14T12:27:01.096Z,8.11
2023-11-14T12:28:01.028Z,7.67
2023-11-14T12:30:00.228Z,7.78
2023-11-14T12:31:00.270Z,8.39
2023-11-14T12:32:00.360Z,8.11
2023-11-14T12:33:00.307Z,8.11
2023-11-14T12:34:00.203Z,8.28
2023-11-14T12:35:00.432Z,8.39
2023-11-14T12:36:00.261Z,8.28
2023-11-14T12:37:00.238Z,8.39
2023-11-14T12:38:00.352Z,8.39
2023-11-14T12:39:01.194Z,8.28
2023-11-14T12:41:00.217Z,8.28
2023-11-14T12:42:00.214Z,7.94
2023-11-14T12:43:00.211Z,8.11
2023-11-14T12:44:05.203Z,8.11
2023-11-14T12:45:00.254Z,7.78
2023-11-14T12:46:00.281Z,7.78
2023-11-14T12:47:00.280Z,7.94
2023-11-14T12:48:00.297Z,7.94
2023-11-14T12:49:00.219Z,7.11
2023-11-14T12:51:00.213Z,7.94
2023-11-14T12:52:00.263Z,7.67
2023-11-14T12:53:00.695Z,7.5
2023-11-14T12:54:00.239Z,7.67
2023-11-14T12:56:00.305Z,7.67
2023-11-14T12:58:00.206Z,7.78
2023-11-14T12:59:00.304Z,7.94
2023-11-14T13:00:00.271Z,7.78
2023-11-14T13:02:00.386Z,7.78
2023-11-14T13:03:00.380Z,7.78
2023-11-14T13:05:00.271Z,8.28
2023-11-14T13:06:00.264Z,7.94
2023-11-14T13:08:00.312Z,7.94
2023-11-14T13:09:00.200Z,8.28
2023-11-14T13:10:00.252Z,8.28
2023-11-14T13:11:00.326Z,7.78
2023-11-14T13:12:00.279Z,7.94
2023-11-14T13:14:00.259Z,7.78
2023-11-14T13:16:00.274Z,7.67
2023-11-14T13:17:00.296Z,7.78
2023-11-14T13:18:00.311Z,7.94
2023-11-14T13:19:00.231Z,7.5
2023-11-14T13:21:00.238Z,7.78
2023-11-14T13:22:00.240Z,7.22
2023-11-14T13:23:00.266Z,7.67
2023-11-14T13:24:00.241Z,7.67
2023-11-14T13:26:00.272Z,7.94
2023-11-14T13:27:00.246Z,7.39
2023-11-14T13:28:00.215Z,7.78
2023-11-14T13:29:00.302Z,7.78
2023-11-14T13:30:00.258Z,7.67
2023-11-14T13:31:00.229Z,8.11
2023-11-14T13:33:00.380Z,7.78
2023-11-14T13:34:00.343Z,7.78
2023-11-14T13:35:06.502Z,8.11
2023-11-14T13:36:00.216Z,8.28
2023-11-14T13:37:00.213Z,7.94
2023-11-14T13:38:00.248Z,7.94
2023-11-14T13:40:05.698Z,7.67
2023-11-14T13:41:00.246Z,7.78
2023-11-14T13:43:00.224Z,7.78
2023-11-14T13:44:00.239Z,7.78
2023-11-14T13:46:00.246Z,7.94
2023-11-14T13:47:00.260Z,8.28
2023-11-14T13:48:00.516Z,8.28
2023-11-14T13:50:00.316Z,7.94
2023-11-14T13:51:00.247Z,7.94
2023-11-14T13:52:00.208Z,7.78
2023-11-14T13:53:00.306Z,7.94
2023-11-14T13:54:00.221Z,8.28
2023-11-14T13:55:00.312Z,7.94
2023-11-14T13:57:00.248Z,8.11
2023-11-14T13:58:00.252Z,7.94
2023-11-14T13:59:01.759Z,7.94
2023-11-14T14:00:00.336Z,7.78
2023-11-14T14:01:00.298Z,7.78
2023-11-14T14:03:00.393Z,7.94
2023-11-14T14:05:00.403Z,7.78
2023-11-14T14:06:00.292Z,7.94
2023-11-14T14:07:00.243Z,7.94
2023-11-14T14:09:00.272Z,7.94
2023-11-14T14:10:00.302Z,7.94
2023-11-14T14:11:00.274Z,7.78
2023-11-14T14:12:00.243Z,7.67
2023-11-14T14:13:00.242Z,7.78
2023-11-14T14:15:00.359Z,7.67
2023-11-14T14:17:00.303Z,7.67
2023-11-14T14:18:00.416Z,7.78
2023-11-14T14:19:00.235Z,7.78
2023-11-14T14:20:00.330Z,7.94
2023-11-14T14:21:00.230Z,7.94
2023-11-14T14:22:00.259Z,7.78
2023-11-14T14:23:00.273Z,7.67
2023-11-14T14:25:00.290Z,7.78
2023-11-14T14:27:00.260Z,7.67
2023-11-14T14:28:00.277Z,7.39
2023-11-14T14:30:00.431Z,7.5
2023-11-14T14:31:00.285Z,7.5
2023-11-14T14:32:00.403Z,7.78
2023-11-14T14:33:00.313Z,7.5
2023-11-14T14:34:04.373Z,7.67
2023-11-14T14:35:00.318Z,7.5
2023-11-14T14:36:00.373Z,7.78
2023-11-14T14:38:00.263Z,7.78
2023-11-14T14:39:00.255Z,7.67
2023-11-14T14:41:00.242Z,7.78
2023-11-14T14:42:00.253Z,7.78
2023-11-14T14:44:00.348Z,7.67
2023-11-14T14:45:00.289Z,7.67
2023-11-14T14:46:00.326Z,7.78
2023-11-14T14:48:00.363Z,7.67
2023-11-14T14:50:00.301Z,7.78
2023-11-14T14:51:00.234Z,7.94
2023-11-14T14:53:00.264Z,7.5
2023-11-14T14:55:00.233Z,7.78
2023-11-14T14:56:00.287Z,7.5
2023-11-14T14:57:00.235Z,7.5
2023-11-14T14:58:01.999Z,7.67
2023-11-14T15:00:00.258Z,7.5
2023-11-14T15:01:00.316Z,7.22
2023-11-14T15:02:00.381Z,7.22
2023-11-14T15:04:00.258Z,7.5
2023-11-14T15:06:00.220Z,7.39
2023-11-14T15:07:00.250Z,7.39
2023-11-14T15:08:00.352Z,6.94
2023-11-14T15:10:00.340Z,7.11
2023-11-14T15:11:00.270Z,7.22
2023-11-14T15:13:00.589Z,7.22
2023-11-14T15:15:00.271Z,7.39
2023-11-14T15:16:03.091Z,7.39
2023-11-14T15:17:00.294Z,7.22
2023-11-14T15:18:00.318Z,7.22
2023-11-14T15:19:00.212Z,7.5
2023-11-14T15:20:00.358Z,7.22
2023-11-14T15:21:00.226Z,7.39
2023-11-14T15:22:00.283Z,7.5
2023-11-14T15:24:00.230Z,7.67
2023-11-14T15:26:00.274Z,7.39
2023-11-14T15:27:00.337Z,7.5
2023-11-14T15:29:00.287Z,7.5
2023-11-14T15:31:00.250Z,7.5
2023-11-14T15:33:00.319Z,7.5
2023-11-14T15:34:00.309Z,7.22
2023-11-14T15:35:00.279Z,7.39
2023-11-14T15:36:00.297Z,7.11
2023-11-14T15:37:00.234Z,7.22
2023-11-14T15:38:00.298Z,7.22
2023-11-14T15:39:00.223Z,7.22
2023-11-14T15:41:00.262Z,7.22
2023-11-14T15:43:00.573Z,7.11
2023-11-14T15:45:00.246Z,7.11
2023-11-14T15:46:00.279Z,7.39
2023-11-14T15:47:00.243Z,7.11
2023-11-14T15:49:00.228Z,7.22
2023-11-14T15:50:00.455Z,7.22
2023-11-14T15:51:00.201Z,7.11
2023-11-14T15:52:00.312Z,7.39
2023-11-14T15:54:00.260Z,7.22
2023-11-14T15:56:00.329Z,7.11
2023-11-14T15:57:00.224Z,7.39
2023-11-14T15:58:00.234Z,6.94
2023-11-14T15:59:00.298Z,6.78
2023-11-14T16:00:00.241Z,6.94
2023-11-14T16:01:00.250Z,7.11
2023-11-14T16:02:00.347Z,7.22
2023-11-14T16:03:00.291Z,7.22
2023-11-14T16:04:00.367Z,6.94
2023-11-14T16:06:00.255Z,7.11
2023-11-14T16:07:00.217Z,7.11
2023-11-14T16:08:00.307Z,7.11
2023-11-14T16:09:00.226Z,7.11
2023-11-14T16:10:00.279Z,7.11
2023-11-14T16:11:00.334Z,7.11
2023-11-14T16:12:00.223Z,6.94
2023-11-14T16:13:00.225Z,7.11
2023-11-14T16:14:00.407Z,6.78
2023-11-14T16:15:00.235Z,6.78
2023-11-14T16:16:00.220Z,6.94
2023-11-14T16:17:00.267Z,6.94
2023-11-14T16:18:00.264Z,7.11
2023-11-14T16:19:00.219Z,6.67
2023-11-14T16:20:00.332Z,6.94
2023-11-14T16:22:00.241Z,6.78
2023-11-14T16:24:00.226Z,6.67